Terminal Aerodrome Forecast
Issued by NWS

Home | Current Version | Previous Version | Text Only | Print | Product List | Glossary On
Versions: 1 2 3 4 5 6 7 8 9 10 11 12 13 14 15 16 17 18 19 20 21 22 23 24 25 26 27 28 29 30 31 32 33 34 35 36
000
FTUS41 KBOX 310528
TAFBAF
TAF
KBAF 310528Z 3106/0106 00000KT P6SM SCT250
     FM311200 00000KT P6SM SCT250
     FM311600 21006KT P6SM SCT050
     FM311800 22008KT P6SM BKN050
     FM010000 20005KT P6SM SCT250=

USA.gov is the U.S. government's official web portal to all federal, state and local government web resources and services.